createdAt,value
2023-02-24T00:01:37.718Z,3.80
2023-02-24T00:04:08.357Z,3.80
2023-02-24T00:06:38.779Z,3.70
2023-02-24T00:09:09.750Z,3.70
2023-02-24T00:11:40.674Z,3.70
2023-02-24T00:14:10.049Z,3.70
2023-02-24T00:16:38.620Z,3.70
2023-02-24T00:19:08.157Z,3.70
2023-02-24T00:21:36.798Z,3.80
2023-02-24T00:24:04.896Z,3.80
2023-02-24T00:26:32.862Z,3.80
2023-02-24T00:29:04.975Z,3.80
2023-02-24T00:31:33.232Z,3.80
2023-02-24T00:34:02.704Z,3.90
2023-02-24T00:36:33.839Z,3.90
2023-02-24T00:39:09.212Z,3.90
2023-02-24T00:41:38.490Z,3.90
2023-02-24T00:44:09.937Z,3.90
2023-02-24T00:46:41.325Z,3.90
2023-02-24T00:49:17.000Z,3.90
2023-02-24T00:51:47.225Z,3.90
2023-02-24T00:54:16.142Z,4.00
2023-02-24T00:56:45.215Z,4.00
2023-02-24T00:59:16.018Z,4.00
2023-02-24T01:01:45.187Z,4.00
2023-02-24T01:04:14.612Z,4.00
2023-02-24T01:06:47.410Z,4.00
2023-02-24T01:09:17.826Z,4.00
2023-02-24T01:12:04.497Z,4.00
2023-02-24T01:14:36.131Z,4.10
2023-02-24T01:17:05.334Z,4.10
2023-02-24T01:19:34.446Z,4.10
2023-02-24T01:22:04.357Z,4.10
2023-02-24T01:24:34.311Z,4.10
2023-02-24T01:27:02.941Z,4.10
2023-02-24T01:29:30.940Z,4.20
2023-02-24T01:32:00.450Z,4.20
2023-02-24T01:34:29.118Z,4.20
2023-02-24T01:36:59.076Z,4.20
2023-02-24T01:39:26.986Z,4.20
2023-02-24T01:41:55.279Z,4.20
2023-02-24T01:45:12.707Z,4.10
2023-02-24T01:47:43.503Z,4.10
2023-02-24T01:50:15.969Z,4.10
2023-02-24T01:52:47.425Z,4.10
2023-02-24T01:55:22.102Z,4.10
2023-02-24T01:57:53.653Z,4.10
2023-02-24T02:00:38.325Z,4.10
2023-02-24T02:03:24.292Z,4.10
2023-02-24T02:05:54.267Z,4.10
2023-02-24T02:08:24.439Z,4.10
2023-02-24T02:10:58.695Z,4.10
2023-02-24T02:13:29.255Z,4.10
2023-02-24T02:16:22.208Z,4.10
2023-02-24T02:19:00.712Z,4.10
2023-02-24T02:21:56.671Z,4.10
2023-02-24T02:24:34.108Z,4.10
2023-02-24T02:27:39.945Z,4.20
2023-02-24T02:30:46.389Z,4.10
2023-02-24T02:33:56.128Z,4.10
2023-02-24T02:36:31.289Z,4.20
2023-02-24T02:39:08.095Z,4.20
2023-02-24T02:41:47.797Z,4.20
2023-02-24T02:44:21.761Z,4.20
2023-02-24T02:46:54.305Z,4.30
2023-02-24T02:49:30.632Z,4.30
2023-02-24T02:52:05.957Z,4.40
2023-02-24T02:54:40.332Z,4.40
2023-02-24T02:57:12.663Z,4.40
2023-02-24T02:59:49.254Z,4.40
2023-02-24T03:02:21.065Z,4.40
2023-02-24T03:04:53.612Z,4.40
2023-02-24T03:07:30.867Z,4.40
2023-02-24T03:10:02.060Z,4.40
2023-02-24T03:12:32.985Z,4.40
2023-02-24T03:15:04.608Z,4.40
2023-02-24T03:17:37.000Z,4.50
2023-02-24T03:20:15.857Z,4.40
2023-02-24T03:22:50.256Z,4.40
2023-02-24T03:25:24.128Z,4.30
2023-02-24T03:27:57.029Z,4.40
2023-02-24T03:30:29.945Z,4.40
2023-02-24T03:33:03.445Z,4.40
2023-02-24T03:35:37.180Z,4.40
2023-02-24T03:38:07.127Z,4.40
2023-02-24T03:40:36.043Z,4.50
2023-02-24T03:43:09.984Z,4.40
2023-02-24T03:45:40.664Z,4.50
2023-02-24T03:48:11.866Z,4.50
2023-02-24T03:50:42.742Z,4.50
2023-02-24T03:53:32.886Z,4.50
2023-02-24T03:56:10.899Z,4.50
2023-02-24T03:58:55.407Z,4.60
2023-02-24T04:01:34.782Z,4.60
2023-02-24T04:04:10.463Z,4.60
2023-02-24T04:06:56.424Z,4.70
2023-02-24T04:09:34.116Z,4.80
2023-02-24T04:12:17.164Z,4.80
2023-02-24T04:14:51.263Z,4.80
2023-02-24T04:17:23.504Z,4.80
2023-02-24T04:19:57.360Z,4.90
2023-02-24T04:22:27.492Z,4.90
2023-02-24T04:25:00.688Z,4.90
2023-02-24T04:27:29.709Z,4.90
2023-02-24T04:30:11.733Z,5.00
2023-02-24T04:32:42.757Z,5.00
2023-02-24T04:35:14.384Z,5.00
2023-02-24T04:37:45.980Z,5.10
2023-02-24T04:40:18.326Z,5.10
2023-02-24T04:42:49.805Z,5.10
2023-02-24T04:45:19.391Z,5.20
2023-02-24T04:47:49.505Z,5.20
2023-02-24T04:50:23.753Z,5.20
2023-02-24T04:52:53.327Z,5.20
2023-02-24T04:55:24.512Z,5.20
2023-02-24T04:57:54.495Z,5.20
2023-02-24T05:00:26.381Z,5.20
2023-02-24T05:02:55.980Z,5.30
2023-02-24T05:05:27.226Z,5.20
2023-02-24T05:07:56.033Z,5.30
2023-02-24T05:10:27.958Z,5.30
2023-02-24T05:12:58.082Z,5.30
2023-02-24T05:15:31.042Z,5.30
2023-02-24T05:18:00.770Z,5.30
2023-02-24T05:20:47.062Z,5.40
2023-02-24T05:23:16.923Z,5.30
2023-02-24T05:25:46.402Z,5.30
2023-02-24T05:28:14.366Z,5.40
2023-02-24T05:30:42.341Z,5.40
2023-02-24T05:33:10.622Z,5.40
2023-02-24T05:35:39.458Z,5.40
2023-02-24T05:38:08.245Z,5.40
2023-02-24T05:40:36.365Z,5.50
2023-02-24T05:43:05.759Z,5.50
2023-02-24T05:45:34.508Z,5.50
2023-02-24T05:48:05.771Z,5.50
2023-02-24T05:50:33.656Z,5.50
2023-02-24T05:53:03.309Z,5.50
2023-02-24T05:55:31.868Z,5.60
2023-02-24T05:58:00.281Z,5.60
2023-02-24T06:00:29.761Z,5.60
2023-02-24T06:03:08.301Z,5.60
2023-02-24T06:05:39.577Z,5.60
2023-02-24T06:08:11.750Z,5.60
2023-02-24T06:10:41.307Z,5.60
2023-02-24T06:13:10.370Z,5.70
2023-02-24T06:15:41.687Z,5.70
2023-02-24T06:18:11.593Z,5.70
2023-02-24T06:20:40.258Z,5.70
2023-02-24T06:23:08.753Z,5.70
2023-02-24T06:25:38.598Z,5.70
2023-02-24T06:28:06.667Z,5.70
2023-02-24T06:30:35.174Z,5.80
2023-02-24T06:33:05.845Z,5.70
2023-02-24T06:35:33.889Z,5.80
2023-02-24T06:38:01.977Z,5.80
2023-02-24T06:40:31.267Z,5.80
2023-02-24T06:42:59.212Z,5.80
2023-02-24T06:45:27.238Z,5.90
2023-02-24T06:47:55.178Z,5.90
2023-02-24T06:50:24.665Z,5.90
2023-02-24T06:52:58.429Z,5.90
2023-02-24T06:55:26.470Z,5.90
2023-02-24T06:57:57.283Z,5.80
2023-02-24T07:00:36.893Z,5.90
2023-02-24T07:03:14.805Z,5.90
2023-02-24T07:05:50.559Z,5.90
2023-02-24T07:08:23.782Z,6.00
2023-02-24T07:10:56.144Z,6.00
2023-02-24T07:13:25.322Z,6.00
2023-02-24T07:15:53.348Z,6.00
2023-02-24T07:18:21.369Z,6.10
2023-02-24T07:20:50.696Z,6.20
2023-02-24T07:23:18.702Z,6.10
2023-02-24T07:25:47.168Z,6.10
2023-02-24T07:28:15.145Z,6.10
2023-02-24T07:30:43.680Z,6.10
2023-02-24T07:33:12.010Z,6.20
2023-02-24T07:35:42.366Z,6.20
2023-02-24T07:38:17.175Z,6.20
2023-02-24T07:40:46.462Z,6.20
2023-02-24T07:43:16.200Z,6.20
2023-02-24T07:45:48.058Z,6.30
2023-02-24T07:48:16.000Z,6.30
2023-02-24T07:50:43.913Z,6.30
2023-02-24T07:53:13.584Z,6.40
2023-02-24T07:55:41.720Z,6.40
2023-02-24T07:58:10.668Z,6.40
2023-02-24T08:00:58.610Z,6.40
2023-02-24T08:03:29.975Z,6.40
2023-02-24T08:06:12.838Z,6.50
2023-02-24T08:08:57.818Z,6.50
2023-02-24T08:11:27.843Z,6.50
2023-02-24T08:13:59.264Z,6.50
2023-02-24T08:16:39.337Z,6.50
2023-02-24T08:19:07.621Z,6.60
2023-02-24T08:21:38.251Z,6.60
2023-02-24T08:24:09.261Z,6.60
2023-02-24T08:26:44.712Z,6.60
2023-02-24T08:29:13.331Z,6.60
2023-02-24T08:31:43.195Z,6.60
2023-02-24T08:34:16.074Z,6.60
2023-02-24T08:36:48.365Z,6.60
2023-02-24T08:39:19.258Z,6.60
2023-02-24T08:41:51.320Z,6.60
2023-02-24T08:44:20.409Z,6.60
2023-02-24T08:46:50.302Z,6.60
2023-02-24T08:49:19.128Z,6.70
2023-02-24T08:51:49.286Z,6.70
2023-02-24T08:54:26.946Z,6.70
2023-02-24T08:56:56.947Z,6.70
2023-02-24T08:59:38.853Z,6.70
2023-02-24T09:02:18.325Z,6.80
2023-02-24T09:04:47.425Z,6.70
2023-02-24T09:07:17.452Z,6.70
2023-02-24T09:09:46.865Z,6.80
2023-02-24T09:12:21.956Z,6.80
2023-02-24T09:14:51.112Z,6.70
2023-02-24T09:17:30.823Z,6.70
2023-02-24T09:20:16.103Z,6.80
2023-02-24T09:22:57.234Z,6.80
2023-02-24T09:25:40.601Z,6.80
2023-02-24T09:28:11.056Z,6.80
2023-02-24T09:30:51.126Z,6.90
2023-02-24T09:33:22.440Z,6.90
2023-02-24T09:35:54.113Z,6.90
2023-02-24T09:38:46.030Z,6.90
2023-02-24T09:41:31.478Z,6.90
2023-02-24T09:44:03.823Z,7.00
2023-02-24T09:46:43.148Z,7.00
2023-02-24T09:49:18.401Z,7.10
2023-02-24T09:51:53.385Z,7.10
2023-02-24T09:54:24.646Z,7.10
2023-02-24T09:57:08.313Z,7.10
2023-02-24T10:00:01.095Z,7.10
2023-02-24T10:02:47.535Z,7.10
2023-02-24T10:05:27.315Z,7.00
2023-02-24T10:07:57.122Z,7.00
2023-02-24T10:10:29.085Z,7.00
2023-02-24T10:13:09.633Z,7.00
2023-02-24T10:15:59.138Z,7.00
2023-02-24T10:18:32.938Z,6.90
2023-02-24T10:21:15.461Z,6.90
2023-02-24T10:24:09.780Z,6.90
2023-02-24T10:26:59.551Z,6.90
2023-02-24T10:29:50.829Z,6.80
2023-02-24T10:32:23.942Z,6.70
2023-02-24T10:35:20.230Z,6.80
2023-02-24T10:37:49.164Z,6.80
2023-02-24T10:40:26.476Z,6.90
2023-02-24T10:43:10.398Z,6.90
2023-02-24T10:45:45.147Z,7.00
2023-02-24T10:48:40.348Z,7.10
2023-02-24T10:51:19.637Z,7.10
2023-02-24T10:54:09.545Z,7.00
2023-02-24T10:56:55.247Z,7.10
2023-02-24T10:59:37.291Z,7.10
2023-02-24T11:02:29.418Z,7.10
2023-02-24T11:05:16.848Z,7.10
2023-02-24T11:07:53.570Z,7.10
2023-02-24T11:10:33.143Z,7.20
2023-02-24T11:13:20.487Z,7.20
2023-02-24T11:16:09.166Z,7.20
2023-02-24T11:18:40.627Z,7.10
2023-02-24T11:21:12.059Z,7.10
2023-02-24T11:23:43.349Z,7.10
2023-02-24T11:26:17.673Z,7.10
2023-02-24T11:29:00.948Z,7.10
2023-02-24T11:31:51.938Z,7.20
2023-02-24T11:34:28.961Z,7.20
2023-02-24T11:37:09.128Z,7.20
2023-02-24T11:39:53.543Z,7.20
2023-02-24T11:42:27.096Z,7.10
2023-02-24T11:45:00.914Z,7.20
2023-02-24T11:47:36.797Z,7.30
2023-02-24T11:50:18.886Z,7.40
2023-02-24T11:52:50.543Z,7.50
2023-02-24T11:55:28.207Z,7.70
2023-02-24T11:57:59.270Z,7.70
2023-02-24T12:00:32.177Z,7.80
2023-02-24T12:03:04.813Z,7.90
2023-02-24T12:05:37.779Z,7.90
2023-02-24T12:08:16.163Z,7.90
2023-02-24T12:10:50.476Z,7.90
2023-02-24T12:13:24.701Z,7.80
2023-02-24T12:15:59.788Z,7.80
2023-02-24T12:18:34.123Z,7.70
2023-02-24T12:21:07.715Z,7.70
2023-02-24T12:23:39.300Z,7.50
2023-02-24T12:26:19.317Z,7.40
2023-02-24T12:29:16.137Z,7.30
2023-02-24T12:31:57.330Z,7.30
2023-02-24T12:34:38.384Z,7.40
2023-02-24T12:37:25.559Z,7.70
2023-02-24T12:40:04.221Z,8.00
2023-02-24T12:42:39.954Z,8.20
2023-02-24T12:45:16.953Z,8.20
2023-02-24T12:47:57.287Z,8.20
2023-02-24T12:50:32.174Z,8.10
2023-02-24T12:53:07.840Z,8.00
2023-02-24T12:55:46.904Z,8.00
2023-02-24T12:58:18.904Z,7.90
2023-02-24T13:01:02.600Z,7.80
2023-02-24T13:03:45.674Z,7.80
2023-02-24T13:06:19.758Z,7.70
2023-02-24T13:08:58.368Z,7.60
2023-02-24T13:11:39.544Z,7.60
2023-02-24T13:14:18.001Z,7.60
2023-02-24T13:16:46.143Z,7.70
2023-02-24T13:19:22.688Z,7.60
2023-02-24T13:21:59.649Z,7.60
2023-02-24T13:24:29.309Z,7.60
2023-02-24T13:27:07.471Z,7.50
2023-02-24T13:29:45.209Z,7.50
2023-02-24T13:32:28.806Z,7.40
2023-02-24T13:34:58.174Z,7.30
2023-02-24T13:37:31.560Z,7.20
2023-02-24T13:40:00.941Z,7.20
2023-02-24T13:42:31.294Z,7.20
2023-02-24T13:45:18.254Z,7.20
2023-02-24T13:48:15.986Z,7.30
2023-02-24T13:51:01.494Z,7.30
2023-02-24T13:53:41.668Z,7.40
2023-02-24T13:56:26.574Z,7.60
2023-02-24T13:59:05.053Z,7.80
2023-02-24T14:01:45.559Z,7.90
2023-02-24T14:04:18.085Z,8.10
2023-02-24T14:06:53.633Z,8.20
2023-02-24T14:09:26.560Z,8.20
2023-02-24T14:12:01.886Z,8.20
2023-02-24T14:14:30.756Z,8.00
2023-02-24T14:16:58.828Z,8.00
2023-02-24T14:19:27.186Z,7.90
2023-02-24T14:21:56.908Z,7.90
2023-02-24T14:24:25.192Z,7.80
2023-02-24T14:26:55.548Z,7.70
2023-02-24T14:29:31.760Z,7.60
2023-02-24T14:32:00.329Z,7.60
2023-02-24T14:34:32.270Z,7.50
2023-02-24T14:37:03.362Z,7.50
2023-02-24T14:39:34.136Z,7.50
2023-02-24T14:42:12.378Z,7.60
2023-02-24T14:44:44.968Z,7.60
2023-02-24T14:47:15.282Z,7.60
2023-02-24T14:49:52.420Z,7.60
2023-02-24T14:52:31.556Z,7.50
2023-02-24T14:55:03.128Z,7.50
2023-02-24T14:57:34.627Z,7.40
2023-02-24T15:00:11.815Z,7.40
2023-02-24T15:02:44.783Z,7.40
2023-02-24T15:05:12.960Z,7.40
2023-02-24T15:07:44.685Z,7.40
2023-02-24T15:10:22.189Z,7.40
2023-02-24T15:12:53.228Z,7.30
2023-02-24T15:15:26.935Z,7.20
2023-02-24T15:17:57.697Z,7.20
2023-02-24T15:20:32.222Z,7.10
2023-02-24T15:23:00.573Z,7.10
2023-02-24T15:25:42.005Z,7.10
2023-02-24T15:28:24.509Z,7.00
2023-02-24T15:31:04.759Z,7.00
2023-02-24T15:33:38.368Z,6.90
2023-02-24T15:36:17.221Z,6.90
2023-02-24T15:38:46.290Z,6.90
2023-02-24T15:41:15.233Z,6.80
2023-02-24T15:43:48.996Z,6.70
2023-02-24T15:46:25.251Z,6.80
2023-02-24T15:48:55.485Z,6.80
2023-02-24T15:51:32.396Z,6.80
2023-02-24T15:54:01.518Z,6.70
2023-02-24T15:56:29.844Z,6.70
2023-02-24T15:58:59.847Z,6.60
2023-02-24T16:01:29.867Z,6.60
2023-02-24T16:03:58.149Z,6.40
2023-02-24T16:06:28.384Z,6.40
2023-02-24T16:08:57.939Z,6.30
2023-02-24T16:11:29.732Z,6.20
2023-02-24T16:13:59.642Z,6.10
2023-02-24T16:16:29.529Z,6.10
2023-02-24T16:18:57.903Z,6.00
2023-02-24T16:21:25.906Z,5.90
2023-02-24T16:23:53.909Z,5.80
2023-02-24T16:26:24.057Z,5.70
2023-02-24T16:28:55.219Z,5.60
2023-02-24T16:31:23.971Z,5.60
2023-02-24T16:33:55.687Z,5.50
2023-02-24T16:36:25.501Z,5.50
2023-02-24T16:38:53.760Z,5.50
2023-02-24T16:41:21.941Z,5.40
2023-02-24T16:43:55.156Z,5.30
2023-02-24T16:46:24.993Z,5.20
2023-02-24T16:48:55.629Z,5.20
2023-02-24T16:51:31.491Z,5.10
2023-02-24T16:54:02.087Z,5.10
2023-02-24T16:56:31.448Z,4.90
2023-02-24T16:59:00.626Z,4.80
2023-02-24T17:01:29.766Z,4.80
2023-02-24T17:03:59.500Z,4.70
2023-02-24T17:06:27.994Z,4.60
2023-02-24T17:08:56.368Z,4.50
2023-02-24T17:11:30.393Z,4.30
2023-02-24T17:13:58.325Z,4.20
2023-02-24T17:16:26.555Z,4.20
2023-02-24T17:18:54.562Z,4.10
2023-02-24T17:21:24.766Z,4.00
2023-02-24T17:23:52.765Z,3.90
2023-02-24T17:26:21.063Z,3.80
2023-02-24T17:28:49.214Z,3.80
2023-02-24T17:31:17.301Z,3.70
2023-02-24T17:33:45.318Z,3.70
2023-02-24T17:36:13.237Z,3.70
2023-02-24T17:38:42.513Z,3.70
2023-02-24T17:41:10.772Z,3.60
2023-02-24T17:43:38.814Z,3.60
2023-02-24T17:46:07.492Z,3.60
2023-02-24T17:48:36.074Z,3.50
2023-02-24T17:51:04.096Z,3.60
2023-02-24T17:53:32.281Z,3.50
2023-02-24T17:56:06.490Z,3.60
2023-02-24T17:58:34.822Z,3.50
2023-02-24T18:01:03.455Z,3.50
2023-02-24T18:03:31.985Z,3.60
2023-02-24T18:06:01.558Z,3.50
2023-02-24T18:08:32.873Z,3.50
2023-02-24T18:11:01.413Z,3.40
2023-02-24T18:13:31.859Z,3.40
2023-02-24T18:16:00.517Z,3.40
2023-02-24T18:18:30.352Z,3.30
2023-02-24T18:21:02.679Z,3.30
2023-02-24T18:23:30.795Z,3.30
2023-02-24T18:26:02.084Z,3.30
2023-02-24T18:28:31.600Z,3.30
2023-02-24T18:31:00.578Z,3.30
2023-02-24T18:33:29.274Z,3.30
2023-02-24T18:36:00.687Z,3.30
2023-02-24T18:38:29.434Z,3.30
2023-02-24T18:41:01.547Z,3.30
2023-02-24T18:43:31.831Z,3.30
2023-02-24T18:46:00.763Z,3.30
2023-02-24T18:48:30.402Z,3.30
2023-02-24T18:50:59.540Z,3.20
2023-02-24T18:53:31.551Z,3.20
2023-02-24T18:56:01.421Z,3.20
2023-02-24T18:58:31.232Z,3.20
2023-02-24T19:00:59.220Z,3.10
2023-02-24T19:03:27.358Z,3.10
2023-02-24T19:05:55.314Z,3.00
2023-02-24T19:08:23.305Z,2.90
2023-02-24T19:10:51.617Z,2.80
2023-02-24T19:13:20.173Z,2.80
2023-02-24T19:15:49.481Z,2.70
2023-02-24T19:18:18.015Z,2.70
2023-02-24T19:20:45.989Z,2.60
2023-02-24T19:23:16.323Z,2.60
2023-02-24T19:25:44.400Z,2.50
2023-02-24T19:28:12.453Z,2.50
2023-02-24T19:30:41.003Z,2.50
2023-02-24T19:33:12.599Z,2.50
2023-02-24T19:35:42.306Z,2.50
2023-02-24T19:38:10.277Z,2.50
2023-02-24T19:40:38.385Z,2.50
2023-02-24T19:43:06.952Z,2.50
2023-02-24T19:45:35.237Z,2.50
2023-02-24T19:48:03.320Z,2.50
2023-02-24T19:50:32.893Z,2.50
2023-02-24T19:53:01.080Z,2.60
2023-02-24T19:55:29.449Z,2.60
2023-02-24T19:57:57.555Z,2.60
2023-02-24T20:00:25.682Z,2.60
2023-02-24T20:02:56.363Z,2.70
2023-02-24T20:05:24.830Z,2.70
2023-02-24T20:07:54.398Z,2.70
2023-02-24T20:10:23.649Z,2.70
2023-02-24T20:12:51.813Z,2.70
2023-02-24T20:15:20.028Z,2.80
2023-02-24T20:17:49.900Z,2.70
2023-02-24T20:20:18.120Z,2.80
2023-02-24T20:22:46.156Z,2.70
2023-02-24T20:25:15.751Z,2.80
2023-02-24T20:27:44.009Z,2.70
2023-02-24T20:30:13.465Z,2.70
2023-02-24T20:32:51.656Z,2.70
2023-02-24T20:35:21.013Z,2.70
2023-02-24T20:37:49.012Z,2.80
2023-02-24T20:40:18.628Z,2.80
2023-02-24T20:42:46.615Z,2.80
2023-02-24T20:45:14.589Z,2.80
2023-02-24T20:47:42.647Z,2.90
2023-02-24T20:50:11.100Z,2.90
2023-02-24T20:52:40.102Z,2.90
2023-02-24T20:55:08.851Z,2.90
2023-02-24T20:57:38.120Z,3.00
2023-02-24T21:00:08.166Z,3.00
2023-02-24T21:02:36.742Z,3.00
2023-02-24T21:05:05.055Z,3.00
2023-02-24T21:07:33.008Z,3.00
2023-02-24T21:10:00.975Z,3.00
2023-02-24T21:12:28.949Z,3.00
2023-02-24T21:14:58.258Z,3.00
2023-02-24T21:17:26.232Z,3.00
2023-02-24T21:19:54.202Z,3.10
2023-02-24T21:22:22.171Z,3.10
2023-02-24T21:24:50.222Z,3.10
2023-02-24T21:27:18.146Z,3.10
2023-02-24T21:29:48.895Z,3.10
2023-02-24T21:32:18.592Z,3.10
2023-02-24T21:34:46.786Z,3.20
2023-02-24T21:37:14.872Z,3.20
2023-02-24T21:39:42.919Z,3.20
2023-02-24T21:42:12.073Z,3.20
2023-02-24T21:44:44.391Z,3.20
2023-02-24T21:47:12.698Z,3.20
2023-02-24T21:49:42.055Z,3.20
2023-02-24T21:52:12.137Z,3.30
2023-02-24T21:54:40.272Z,3.30
2023-02-24T21:57:08.937Z,3.30
2023-02-24T21:59:37.178Z,3.30
2023-02-24T22:02:05.167Z,3.30
2023-02-24T22:04:33.720Z,3.40
2023-02-24T22:07:03.130Z,3.40
2023-02-24T22:09:31.026Z,3.40
2023-02-24T22:11:58.926Z,3.40
2023-02-24T22:14:26.856Z,3.40
2023-02-24T22:16:54.843Z,3.40
2023-02-24T22:19:22.761Z,3.40
2023-02-24T22:21:50.814Z,3.40
2023-02-24T22:24:20.284Z,3.40
2023-02-24T22:26:48.198Z,3.40
2023-02-24T22:29:16.109Z,3.40
2023-02-24T22:31:47.626Z,3.40
2023-02-24T22:34:17.150Z,3.50
2023-02-24T22:36:45.098Z,3.50
2023-02-24T22:39:16.528Z,3.50
2023-02-24T22:41:47.415Z,3.50
2023-02-24T22:44:19.091Z,3.50
2023-02-24T22:46:47.227Z,3.50
2023-02-24T22:49:17.536Z,3.50
2023-02-24T22:51:45.663Z,3.60
2023-02-24T22:54:13.596Z,3.60
2023-02-24T22:56:42.275Z,3.60
2023-02-24T22:59:12.611Z,3.60
2023-02-24T23:01:42.586Z,3.60
2023-02-24T23:04:15.374Z,3.60
2023-02-24T23:06:44.494Z,3.60
2023-02-24T23:09:13.223Z,3.60
2023-02-24T23:11:42.392Z,3.60
2023-02-24T23:14:14.748Z,3.70
2023-02-24T23:16:44.434Z,3.60
2023-02-24T23:19:16.050Z,3.70
2023-02-24T23:21:46.585Z,3.60
2023-02-24T23:24:16.334Z,3.70
2023-02-24T23:26:46.036Z,3.60
2023-02-24T23:29:18.811Z,3.60
2023-02-24T23:31:47.572Z,3.60
2023-02-24T23:34:16.324Z,3.60
2023-02-24T23:36:45.926Z,3.60
2023-02-24T23:39:17.319Z,3.50
2023-02-24T23:41:45.445Z,3.60
2023-02-24T23:44:14.775Z,3.60
2023-02-24T23:46:42.776Z,3.50
2023-02-24T23:49:10.780Z,3.60
2023-02-24T23:51:48.119Z,3.60
2023-02-24T23:54:16.982Z,3.60
2023-02-24T23:56:45.135Z,3.60
2023-02-24T23:59:13.108Z,3.60
